Terminal Aerodrome Forecast
Issued by NWS Bismarck, ND

Home | Current Version | Previous Version | Graphics & Text | Print | Product List | Glossary On
Versions: 1 2 3 4 5 6 7 8 9 10 11 12 13 14 15 16 17 18 19 20 21 22 23 24
771
FTUS43 KBIS 050739 AAA
TAFISN
TAF AMD
KISN 050739Z 0508/0606 24008KT P6SM VCSH BKN015
      TEMPO 0508/0512 2SM -SN
     FM051200 30013KT P6SM VCSH OVC010
     FM051800 31018G28KT P6SM OVC010=

USA.gov is the U.S. government's official web portal to all federal, state and local government web resources and services.